TIST/STT METAR and TAF weather

Enter ICAO airport designator
Station Type Date Time Source
TIST METAR 2022/05/23 13:53 UTC NOAA

TIST 231353Z 14010KT 10SM -RA FEW026 BKN034 OVC048 27/22 A3007 RMK AO2 RAB29 SLP183 P0000 T02720222


Station Type Date Time Source
TIST Decoded METAR 2022/05/23 13:53 UTC NOAA

Charlotte Amalie St. Thomas, Cyril E. King Airport, Virgin Islands (TIST) 18-20N 064-59W
May 23, 2022 - 09:53 AM EDT / 2022.05.23 1353 UTC
Wind: from the SE (140 degrees) at 12 MPH (10 KT):0
Visibility: 10 mile(s):0
Sky conditions: overcast
Weather: light rain
Precipitation last hour: A trace
Temperature: 81.0 F (27.2 C)
Dew Point: 72.0 F (22.2 C)
Relative Humidity: 74%
Pressure (altimeter): 30.07 in. Hg (1018 hPa)
ob: TIST 231353Z 14010KT 10SM -RA FEW026 BKN034 OVC048 27/22 A3007 RMK AO2 RAB29 SLP183 P0000 T02720222
cycle: 14

Station Type Date Time Source
TIST TAF 2022/05/23 12:39 UTC NOAA

TAF TIST 231130Z 2312/2412 09008KT P6SM FEW025 SCT060
FM231400 12013KT P6SM VCSH FEW025 SCT035
FM232300 07009KT P6SM SCT030

Example: see airport list